Time;durP1;ratioP1;P1;durP2;ratioP2;P2;SDS_P1;SDS_P2;PMS_P1;PMS_P2;Temp;Humidity;BMP_temperature;BMP_pressure;BME280_temperature;BME280_humidity;BME280_pressure;Samples;Min_cycle;Max_cycle;Signal;HPM_P1;HPM_P2
2023/04/15 00:01:04;;;;;;;0.30;0.30;;;;;;;4.53;100.00;97923.34;5112503;27;20199;-78
2023/04/15 00:03:33;;;;;;;0.50;0.50;;;;;;;4.51;100.00;97928.06;5109119;28;20196;-78
2023/04/15 00:06:00;;;;;;;0.60;0.40;;;;;;;4.43;100.00;97929.97;5111458;28;20223;-78
2023/04/15 00:08:27;;;;;;;1.03;0.40;;;;;;;4.52;100.00;97924.41;5113535;28;20192;-78
2023/04/15 00:10:54;;;;;;;0.33;0.33;;;;;;;4.46;100.00;97933.22;5113724;28;20569;-79
2023/04/15 00:13:21;;;;;;;0.70;0.50;;;;;;;4.47;100.00;97930.38;5113409;28;20271;-79
2023/04/15 00:15:47;;;;;;;0.50;0.50;;;;;;;4.57;100.00;97929.84;5113483;28;20568;-78
2023/04/15 00:18:14;;;;;;;1.37;0.50;;;;;;;4.51;100.00;97939.50;5112333;28;20195;-78
2023/04/15 00:20:41;;;;;;;0.63;0.40;;;;;;;4.59;100.00;97939.19;5110639;28;20184;-78
2023/04/15 00:23:07;;;;;;;0.23;0.20;;;;;;;4.57;100.00;97943.91;5110933;28;20206;-78
2023/04/15 00:25:34;;;;;;;0.57;0.30;;;;;;;4.56;100.00;97942.28;5092468;28;20238;-79
2023/04/15 00:28:01;;;;;;;0.50;0.40;;;;;;;4.57;100.00;97941.28;5112268;28;20661;-79
2023/04/15 00:30:28;;;;;;;0.67;0.40;;;;;;;4.61;100.00;97942.44;5110955;28;20193;-79
2023/04/15 00:32:54;;;;;;;0.50;0.40;;;;;;;4.65;100.00;97946.25;5093831;28;20199;-79
2023/04/15 00:35:22;;;;;;;0.30;0.30;;;;;;;4.62;100.00;97945.91;5113678;28;20598;-79
2023/04/15 00:37:50;;;;;;;0.47;0.30;;;;;;;4.64;100.00;97952.59;5111008;28;20729;-79
2023/04/15 00:40:18;;;;;;;0.57;0.30;;;;;;;4.61;100.00;97958.34;5095350;28;20227;-79
2023/04/15 00:42:45;;;;;;;0.40;0.40;;;;;;;4.60;100.00;97955.91;5095544;28;20188;-79
2023/04/15 00:45:12;;;;;;;0.33;0.33;;;;;;;4.61;100.00;97957.53;5100766;28;20214;-80
2023/04/15 00:47:41;;;;;;;0.70;0.40;;;;;;;4.64;100.00;97955.25;5111470;28;20188;-79
2023/04/15 00:50:08;;;;;;;0.80;0.40;;;;;;;4.65;100.00;97958.72;5083941;28;20184;-80
2023/04/15 00:52:35;;;;;;;0.40;0.40;;;;;;;4.63;100.00;97956.28;5080959;28;20657;-79
2023/04/15 00:55:03;;;;;;;0.33;0.33;;;;;;;4.64;100.00;97965.03;5113339;28;20207;-79
2023/04/15 00:57:30;;;;;;;0.30;0.30;;;;;;;4.64;100.00;97957.91;5112337;28;20190;-79
2023/04/15 00:59:57;;;;;;;0.40;0.40;;;;;;;4.66;100.00;97963.00;5110037;28;20274;-79
2023/04/15 01:02:23;;;;;;;0.30;0.30;;;;;;;4.61;100.00;97958.34;5113313;28;20203;-79
2023/04/15 01:04:50;;;;;;;0.37;0.37;;;;;;;4.73;100.00;97964.53;5100358;28;20220;-78
2023/04/15 01:07:17;;;;;;;0.47;0.30;;;;;;;4.74;100.00;97960.84;5100036;28;20310;-79
2023/04/15 01:09:44;;;;;;;0.40;0.40;;;;;;;4.75;100.00;97959.00;5111334;28;20195;-80
2023/04/15 01:12:12;;;;;;;0.40;0.40;;;;;;;4.75;100.00;97969.63;5113072;28;20195;-78
2023/04/15 01:14:38;;;;;;;0.83;0.37;;;;;;;4.76;100.00;97965.91;5112805;28;20194;-79
2023/04/15 01:17:05;;;;;;;0.73;0.40;;;;;;;4.72;100.00;97965.56;5093446;28;20187;-79
2023/04/15 01:19:32;;;;;;;1.13;0.40;;;;;;;4.81;100.00;97958.09;5111500;28;20595;-79
2023/04/15 01:21:59;;;;;;;0.43;0.43;;;;;;;4.83;100.00;97962.16;5076173;28;20189;-78
2023/04/15 01:24:27;;;;;;;0.50;0.50;;;;;;;4.80;100.00;97962.63;5111288;28;20223;-79
2023/04/15 01:26:53;;;;;;;0.70;0.70;;;;;;;4.80;100.00;97967.94;5093897;28;20250;-78
2023/04/15 01:29:22;;;;;;;0.87;0.87;;;;;;;4.86;100.00;97969.66;5096327;28;20680;-78
2023/04/15 01:31:51;;;;;;;1.10;1.03;;;;;;;4.88;100.00;97972.09;5099516;28;20191;-78
2023/04/15 01:34:18;;;;;;;0.80;0.80;;;;;;;4.87;100.00;97973.13;5092921;28;20222;-78
2023/04/15 01:36:45;;;;;;;0.70;0.60;;;;;;;4.85;100.00;97981.31;5100412;28;20203;-78
2023/04/15 01:39:13;;;;;;;1.20;0.57;;;;;;;4.81;100.00;97980.13;5071027;28;20602;-78
2023/04/15 01:41:41;;;;;;;0.63;0.47;;;;;;;4.83;100.00;97974.63;5089982;28;20256;-77
2023/04/15 01:44:08;;;;;;;0.50;0.30;;;;;;;4.86;100.00;97969.66;5088762;28;20536;-77
2023/04/15 01:46:35;;;;;;;0.63;0.40;;;;;;;4.87;100.00;97970.47;5087888;28;20212;-79
2023/04/15 01:49:01;;;;;;;1.37;0.40;;;;;;;4.87;100.00;97973.94;5087826;28;20259;-77
2023/04/15 01:51:30;;;;;;;1.37;0.30;;;;;;;4.86;100.00;97974.16;5089096;28;20682;-78
2023/04/15 01:53:57;;;;;;;0.47;0.40;;;;;;;4.85;100.00;97978.66;5088806;28;20646;-78
2023/04/15 01:56:24;;;;;;;0.33;0.30;;;;;;;4.90;100.00;97977.97;5089175;28;20200;-78
2023/04/15 01:58:51;;;;;;;0.30;0.30;;;;;;;4.92;100.00;97975.13;5073145;28;20246;-78
2023/04/15 02:01:18;;;;;;;0.33;0.30;;;;;;;4.94;100.00;97971.22;5072910;28;20204;-77
2023/04/15 02:03:46;;;;;;;0.50;0.47;;;;;;;4.91;100.00;97973.50;5090147;28;20192;-78
2023/04/15 02:06:14;;;;;;;0.90;0.80;;;;;;;5.00;100.00;97977.47;5084812;28;20216;-78
2023/04/15 02:08:40;;;;;;;2.23;2.03;;;;;;;4.94;100.00;97970.41;5088963;28;20187;-78
2023/04/15 02:11:08;;;;;;;1.37;1.27;;;;;;;4.98;100.00;97979.53;5085746;28;20667;-79
2023/04/15 02:13:35;;;;;;;1.23;0.80;;;;;;;4.94;100.00;97975.72;5090517;28;20271;-78
2023/04/15 02:16:02;;;;;;;1.17;0.80;;;;;;;4.95;100.00;97985.28;5086513;28;20220;-78
2023/04/15 02:18:28;;;;;;;0.60;0.60;;;;;;;4.94;100.00;97981.03;5093127;28;20188;-78
2023/04/15 02:20:57;;;;;;;0.63;0.30;;;;;;;4.94;100.00;97986.34;5092813;28;20215;-77
2023/04/15 02:23:24;;;;;;;0.40;0.40;;;;;;;4.98;100.00;97987.50;5090152;28;20204;-79
2023/04/15 02:25:51;;;;;;;0.90;0.33;;;;;;;4.95;100.00;97990.59;5093960;28;20210;-78
2023/04/15 02:28:20;;;;;;;0.20;0.20;;;;;;;4.97;100.00;97984.03;5092525;28;20192;-77
2023/04/15 02:30:49;;;;;;;0.63;0.40;;;;;;;5.03;100.00;97991.13;5094083;28;20275;-78
2023/04/15 02:33:16;;;;;;;0.40;0.30;;;;;;;5.07;100.00;97989.63;5093041;28;20189;-78
2023/04/15 02:35:44;;;;;;;0.30;0.30;;;;;;;5.04;100.00;97986.63;5089557;28;20272;-77
2023/04/15 02:38:11;;;;;;;0.30;0.30;;;;;;;5.04;100.00;97986.63;5090531;28;20734;-78
2023/04/15 02:40:37;;;;;;;0.50;0.40;;;;;;;5.02;100.00;97983.38;5091949;28;20287;-78
2023/04/15 02:43:06;;;;;;;0.40;0.40;;;;;;;5.01;100.00;97985.22;5087253;28;20192;-78
2023/04/15 02:45:33;;;;;;;0.70;0.50;;;;;;;5.03;100.00;97983.16;5092565;28;20195;-79
2023/04/15 02:48:05;;;;;;;0.30;0.30;;;;;;;5.04;100.00;97998.03;5077509;28;20205;-79
2023/04/15 02:50:32;;;;;;;0.30;0.30;;;;;;;5.08;100.00;97991.25;5093964;28;20249;-79
2023/04/15 02:53:00;;;;;;;0.47;0.40;;;;;;;5.09;100.00;97989.38;5076030;28;20196;-79
2023/04/15 02:55:28;;;;;;;0.50;0.43;;;;;;;5.09;100.00;97990.19;5094453;28;20253;-78
2023/04/15 02:57:56;;;;;;;0.40;0.40;;;;;;;5.13;100.00;97990.59;5095224;28;20192;-78
2023/04/15 03:00:24;;;;;;;0.70;0.57;;;;;;;5.10;100.00;97989.16;5093853;28;20250;-79
2023/04/15 03:02:55;;;;;;;0.60;0.60;;;;;;;5.17;100.00;97995.22;5095079;28;20188;-78
2023/04/15 03:05:24;;;;;;;0.70;0.60;;;;;;;5.16;100.00;97998.91;5094558;28;20212;-78
2023/04/15 03:07:51;;;;;;;0.43;0.43;;;;;;;5.07;100.00;97994.94;5093510;28;20220;-78
2023/04/15 03:10:18;;;;;;;0.77;0.70;;;;;;;5.03;100.00;98000.91;5092253;28;20196;-79
2023/04/15 03:12:45;;;;;;;0.60;0.60;;;;;;;5.03;100.00;97998.25;5093647;28;20201;-78
2023/04/15 03:15:16;;;;;;;0.60;0.60;;;;;;;5.00;100.00;97996.84;5073684;28;20258;-78
2023/04/15 03:17:48;;;;;;;0.90;0.80;;;;;;;5.06;100.00;98000.47;5089388;28;20223;-78
2023/04/15 03:20:15;;;;;;;0.83;0.70;;;;;;;5.03;100.00;97999.06;5093323;28;20203;-79
2023/04/15 03:22:42;;;;;;;1.10;0.73;;;;;;;5.02;100.00;98000.09;5076696;28;20209;-79
2023/04/15 03:25:10;;;;;;;1.37;0.70;;;;;;;5.01;100.00;98002.97;5093320;28;20200;-78
2023/04/15 03:27:37;;;;;;;0.73;0.73;;;;;;;5.02;100.00;98009.91;5093467;28;20230;-78
2023/04/15 03:30:05;;;;;;;0.90;0.90;;;;;;;5.04;100.00;98005.97;5061837;28;20291;-78
2023/04/15 03:32:34;;;;;;;1.00;0.80;;;;;;;5.04;100.00;98010.50;5093370;28;20291;-79
2023/04/15 03:35:01;;;;;;;1.10;0.87;;;;;;;4.99;100.00;98008.53;5093207;28;20192;-78
2023/04/15 03:37:28;;;;;;;0.70;0.70;;;;;;;5.04;100.00;98008.63;5091658;28;20194;-79
2023/04/15 03:39:54;;;;;;;0.87;0.87;;;;;;;4.99;100.00;98005.06;5104836;28;20310;-79
2023/04/15 03:42:21;;;;;;;0.80;0.80;;;;;;;5.02;100.00;98008.06;5115041;28;20242;-78
2023/04/15 03:44:48;;;;;;;0.80;0.80;;;;;;;5.01;100.00;98013.59;5112093;28;20657;-78
2023/04/15 03:47:15;;;;;;;1.33;0.90;;;;;;;5.03;100.00;98011.53;5096552;28;20205;-79
2023/04/15 03:49:41;;;;;;;0.70;0.70;;;;;;;5.00;100.00;98010.13;5114886;28;20199;-78
2023/04/15 03:52:08;;;;;;;1.10;0.87;;;;;;;5.02;100.00;98010.72;5114355;28;20199;-78
2023/04/15 03:54:35;;;;;;;1.50;0.70;;;;;;;5.07;100.00;98015.34;5101176;28;20210;-78
2023/04/15 03:57:02;;;;;;;0.57;0.57;;;;;;;5.00;100.00;98007.47;5113333;28;20196;-78
2023/04/15 03:59:28;;;;;;;0.80;0.80;;;;;;;5.03;100.00;98016.84;5110125;28;20287;-78
2023/04/15 04:01:55;;;;;;;0.90;0.70;;;;;;;5.07;100.00;98021.47;5112605;28;20278;-78
2023/04/15 04:04:22;;;;;;;0.87;0.80;;;;;;;5.06;100.00;98014.53;5114041;28;20242;-79
2023/04/15 04:06:49;;;;;;;1.13;1.00;;;;;;;5.06;100.00;98019.84;5091884;28;20204;-78
2023/04/15 04:09:15;;;;;;;1.83;1.20;;;;;;;5.07;100.00;98018.84;5114029;28;20568;-78
2023/04/15 04:11:42;;;;;;;1.37;1.27;;;;;;;5.03;100.00;98009.69;5112272;28;20192;-78
2023/04/15 04:14:09;;;;;;;1.40;1.30;;;;;;;5.05;100.00;98012.09;5110812;28;20275;-78
2023/04/15 04:16:36;;;;;;;1.23;1.13;;;;;;;5.02;100.00;98021.34;5113543;28;20278;-78
2023/04/15 04:19:02;;;;;;;1.40;1.30;;;;;;;5.03;100.00;98011.53;5112211;28;20648;-78
2023/04/15 04:21:29;;;;;;;1.47;1.20;;;;;;;5.00;100.00;98020.75;5113587;28;20360;-78
2023/04/15 04:23:56;;;;;;;1.50;1.40;;;;;;;5.10;100.00;98025.53;5112256;28;20206;-78
2023/04/15 04:26:23;;;;;;;1.40;1.20;;;;;;;5.15;100.00;98033.63;5095789;28;20197;-77
2023/04/15 04:28:49;;;;;;;0.80;0.80;;;;;;;5.22;100.00;98037.03;5113596;28;20204;-78
2023/04/15 04:31:16;;;;;;;1.30;1.20;;;;;;;5.14;100.00;98037.31;5113691;28;20204;-79
2023/04/15 04:33:42;;;;;;;1.23;1.13;;;;;;;5.14;100.00;98046.09;5112004;28;20188;-79
2023/04/15 04:36:09;;;;;;;1.30;1.20;;;;;;;5.15;100.00;98037.09;5113063;28;20189;-78
2023/04/15 04:38:35;;;;;;;1.60;1.50;;;;;;;5.33;100.00;98045.03;5113158;28;20301;-79
2023/04/15 04:41:02;;;;;;;1.70;1.60;;;;;;;5.22;100.00;98052.97;5109760;28;20678;-78
2023/04/15 04:43:29;;;;;;;1.60;1.10;;;;;;;5.24;100.00;98050.88;5114371;28;20198;-79
2023/04/15 04:45:56;;;;;;;1.43;1.33;;;;;;;5.26;100.00;98065.56;5114259;28;20194;-79
2023/04/15 04:48:22;;;;;;;1.17;1.17;;;;;;;5.29;100.00;98058.97;5114228;28;20231;-79
2023/04/15 04:50:49;;;;;;;1.70;1.50;;;;;;;5.32;100.00;98063.84;5114285;28;20189;-79
2023/04/15 04:53:16;;;;;;;1.60;1.50;;;;;;;5.32;100.00;98062.00;5114381;28;20242;-79
2023/04/15 04:55:43;;;;;;;1.47;1.37;;;;;;;5.35;100.00;98062.59;5113961;28;20275;-79
2023/04/15 04:58:10;;;;;;;2.27;1.60;;;;;;;5.41;100.00;98072.31;5114269;28;20187;-79
2023/04/15 05:00:37;;;;;;;1.63;1.53;;;;;;;5.42;100.00;98069.44;5114215;28;20210;-78
2023/04/15 05:03:04;;;;;;;1.97;1.80;;;;;;;5.51;100.00;98072.56;5114019;28;20215;-78
2023/04/15 05:05:30;;;;;;;1.73;1.63;;;;;;;5.55;100.00;98073.78;5114044;28;20212;-79
2023/04/15 05:07:57;;;;;;;2.20;1.63;;;;;;;5.59;100.00;98075.75;5114052;28;20279;-78
2023/04/15 05:10:24;;;;;;;1.80;1.70;;;;;;;5.58;100.00;98074.13;5114060;28;20191;-79
2023/04/15 05:12:51;;;;;;;1.60;1.50;;;;;;;5.72;100.00;98077.41;5113995;28;20192;-78
2023/04/15 05:15:18;;;;;;;2.20;2.00;;;;;;;5.79;100.00;98080.78;5114120;28;20199;-78
2023/04/15 05:17:44;;;;;;;1.87;1.77;;;;;;;5.85;100.00;98074.56;5096091;28;20258;-79
2023/04/15 05:20:11;;;;;;;1.83;1.73;;;;;;;5.89;100.00;98070.44;5113871;28;20209;-78
2023/04/15 05:22:38;;;;;;;1.70;1.60;;;;;;;5.90;100.00;98077.38;5113670;28;20619;-78
2023/04/15 05:25:05;;;;;;;2.07;1.93;;;;;;;6.04;100.00;98084.13;5113918;28;20193;-79
2023/04/15 05:27:31;;;;;;;1.90;1.80;;;;;;;6.15;100.00;98082.53;5113497;28;20207;-79
2023/04/15 05:29:58;;;;;;;1.80;1.70;;;;;;;6.28;100.00;98082.31;5096921;28;20233;-80
2023/04/15 05:32:25;;;;;;;1.70;1.60;;;;;;;6.25;100.00;98090.78;5113774;28;20194;-79
2023/04/15 05:34:51;;;;;;;1.63;1.53;;;;;;;6.39;100.00;98092.16;5113591;28;20199;-78
2023/04/15 05:37:21;;;;;;;1.70;1.60;;;;;;;6.48;100.00;98088.13;5113713;28;20195;-78
2023/04/15 05:39:48;;;;;;;1.83;1.73;;;;;;;6.60;100.00;98088.13;5113394;28;20222;-79
2023/04/15 05:42:14;;;;;;;1.70;1.60;;;;;;;6.62;100.00;98096.69;5113282;28;20680;-78
2023/04/15 05:44:41;;;;;;;1.57;1.47;;;;;;;6.71;100.00;98105.16;5113736;28;20198;-79
2023/04/15 05:47:09;;;;;;;2.80;2.00;;;;;;;6.81;100.00;98106.16;5113528;28;20207;-79
2023/04/15 05:49:35;;;;;;;1.90;1.80;;;;;;;6.81;100.00;98111.47;5101161;28;20650;-79
2023/04/15 05:52:02;;;;;;;2.30;2.10;;;;;;;6.87;100.00;98104.44;5113512;28;20191;-79
2023/04/15 05:54:29;;;;;;;1.87;1.77;;;;;;;7.00;100.00;98112.16;5113526;28;20190;-79
2023/04/15 05:56:56;;;;;;;2.23;1.80;;;;;;;7.21;100.00;98111.56;5113709;28;20187;-78
2023/04/15 05:59:23;;;;;;;2.20;2.00;;;;;;;7.41;100.00;98104.00;5096248;28;20184;-78
2023/04/15 06:01:50;;;;;;;2.43;1.90;;;;;;;7.72;100.00;98107.25;5113997;28;20190;-78
2023/04/15 06:04:17;;;;;;;2.90;2.20;;;;;;;7.97;100.00;98110.41;5096575;28;20212;-79
2023/04/15 06:06:44;;;;;;;2.37;2.10;;;;;;;8.19;100.00;98107.84;5114060;28;20207;-78
2023/04/15 06:09:11;;;;;;;2.20;2.00;;;;;;;8.43;100.00;98114.69;5114169;28;20186;-78
2023/04/15 06:11:37;;;;;;;1.80;1.70;;;;;;;8.62;100.00;98116.06;5114253;28;20267;-78
2023/04/15 06:14:04;;;;;;;2.10;1.60;;;;;;;8.81;100.00;98124.63;5114041;28;20195;-79
2023/04/15 06:16:31;;;;;;;1.57;1.47;;;;;;;8.99;100.00;98121.69;5113854;28;20270;-79
2023/04/15 06:18:58;;;;;;;1.40;1.30;;;;;;;9.12;100.00;98123.19;5113829;28;20215;-78
2023/04/15 06:21:24;;;;;;;1.30;1.20;;;;;;;9.16;100.00;98121.63;5113730;28;20187;-79
2023/04/15 06:23:51;;;;;;;1.33;1.23;;;;;;;9.27;100.00;98129.56;5113526;28;20202;-78
2023/04/15 06:26:18;;;;;;;1.67;1.50;;;;;;;9.40;100.00;98131.06;5095739;28;20195;-78
2023/04/15 06:28:45;;;;;;;1.57;1.37;;;;;;;9.55;100.00;98125.91;5113825;28;20213;-79
2023/04/15 06:31:11;;;;;;;1.50;1.40;;;;;;;9.68;100.00;98133.53;5113862;28;20278;-79
2023/04/15 06:33:38;;;;;;;1.57;1.47;;;;;;;9.77;100.00;98127.75;5101161;28;20242;-79
2023/04/15 06:36:05;;;;;;;1.90;1.40;;;;;;;9.99;100.00;98129.31;5113493;28;20180;-79
2023/04/15 06:38:32;;;;;;;4.33;3.90;;;;;;;10.33;100.00;98129.97;5113276;28;20658;-78
2023/04/15 06:40:58;;;;;;;9.10;7.80;;;;;;;10.47;100.00;98135.69;5113389;28;20654;-79
2023/04/15 06:43:25;;;;;;;5.80;5.10;;;;;;;10.64;100.00;98127.56;5095452;28;20192;-78
2023/04/15 06:45:51;;;;;;;3.00;2.43;;;;;;;10.98;100.00;98137.72;5113409;28;20184;-79
2023/04/15 06:48:18;;;;;;;1.80;1.70;;;;;;;11.18;100.00;98131.66;5111310;28;20200;-79
2023/04/15 06:50:45;;;;;;;1.80;1.70;;;;;;;11.33;100.00;98133.63;5108390;28;20188;-79
2023/04/15 06:53:11;;;;;;;1.93;1.63;;;;;;;11.41;100.00;98135.81;5112873;28;20188;-79
2023/04/15 06:55:39;;;;;;;1.47;1.30;;;;;;;11.31;100.00;98141.94;5113129;28;20198;-79
2023/04/15 06:58:05;;;;;;;6.60;6.10;;;;;;;11.38;100.00;98137.13;5104625;28;20196;-79
2023/04/15 07:00:32;;;;;;;3.77;3.50;;;;;;;11.34;100.00;98145.94;5087310;28;20188;-79
2023/04/15 07:03:02;;;;;;;1.63;1.53;;;;;;;11.31;100.00;98141.13;5113430;28;20198;-78
2023/04/15 07:05:29;;;;;;;1.33;1.23;;;;;;;11.42;100.00;98148.16;5098939;28;20741;-79
2023/04/15 07:07:56;;;;;;;1.40;1.30;;;;;;;11.40;100.00;98152.97;5116762;28;20207;-79
2023/04/15 07:10:23;;;;;;;1.20;1.20;;;;;;;11.32;100.00;98151.59;5116558;28;20188;-79
2023/04/15 07:12:51;;;;;;;1.70;1.60;;;;;;;11.25;100.00;98161.72;5116468;28;20192;-80
2023/04/15 07:15:18;;;;;;;1.87;1.60;;;;;;;11.12;100.00;98150.66;5116433;28;20183;-78
2023/04/15 07:17:45;;;;;;;1.47;1.37;;;;;;;10.99;100.00;98155.41;5116751;28;20199;-79
2023/04/15 07:20:12;;;;;;;1.73;1.60;;;;;;;10.96;100.00;98158.59;5116413;28;20192;-79
2023/04/15 07:22:39;;;;;;;1.97;1.77;;;;;;;10.92;100.00;98170.88;5116246;28;20275;-79
2023/04/15 07:25:06;;;;;;;1.70;1.60;;;;;;;10.72;100.00;98164.56;5116010;28;20194;-78
2023/04/15 07:27:33;;;;;;;1.57;1.47;;;;;;;10.73;100.00;98164.31;5109302;28;20203;-79
2023/04/15 07:29:59;;;;;;;1.60;1.50;;;;;;;10.80;100.00;98166.78;5116157;28;20552;-79
2023/04/15 07:32:26;;;;;;;1.30;1.20;;;;;;;10.97;100.00;98173.59;5103364;28;20200;-79
2023/04/15 07:34:53;;;;;;;1.30;1.20;;;;;;;11.12;100.00;98172.09;5115980;28;20279;-79
2023/04/15 07:37:20;;;;;;;1.30;1.20;;;;;;;11.25;100.00;98175.13;5115871;28;20684;-79
2023/04/15 07:39:46;;;;;;;1.20;0.90;;;;;;;11.36;100.00;98176.81;5115586;28;20234;-79
2023/04/15 07:42:14;;;;;;;0.80;0.80;;;;;;;11.63;100.00;98183.91;5103357;28;20554;-80
2023/04/15 07:44:43;;;;;;;0.80;0.80;;;;;;;11.69;100.00;98174.84;5115885;28;20236;-79
2023/04/15 07:47:10;;;;;;;1.20;1.10;;;;;;;11.72;100.00;98175.13;5115627;28;20677;-78
2023/04/15 07:49:37;;;;;;;1.23;1.13;;;;;;;11.74;100.00;98172.22;5081455;28;20219;-79
2023/04/15 07:52:04;;;;;;;0.90;0.90;;;;;;;11.65;100.00;98181.78;5115720;28;20385;-79
2023/04/15 07:54:31;;;;;;;1.13;1.03;;;;;;;11.78;100.00;98181.34;5115597;28;20560;-79
2023/04/15 07:56:58;;;;;;;1.40;1.30;;;;;;;11.90;100.00;98182.72;5115633;28;20188;-80
2023/04/15 07:59:26;;;;;;;1.20;1.00;;;;;;;11.94;100.00;98185.72;5115514;28;20319;-79
2023/04/15 08:01:53;;;;;;;0.63;0.63;;;;;;;12.03;100.00;98194.88;5115529;28;20196;-79
2023/04/15 08:04:19;;;;;;;0.83;0.83;;;;;;;12.10;100.00;98195.41;5115217;28;20223;-79
2023/04/15 08:06:48;;;;;;;1.80;0.90;;;;;;;12.11;100.00;98197.03;5115270;28;20184;-79
2023/04/15 08:09:15;;;;;;;1.00;0.90;;;;;;;12.13;100.00;98194.09;5115161;28;20211;-80
2023/04/15 08:11:42;;;;;;;0.93;0.90;;;;;;;12.18;100.00;98199.44;5115409;28;20180;-78
2023/04/15 08:14:08;;;;;;;1.00;0.93;;;;;;;12.20;100.00;98203.50;5115262;28;20183;-78
2023/04/15 08:16:35;;;;;;;1.50;1.37;;;;;;;12.12;100.00;98198.66;5096951;28;20669;-79
2023/04/15 08:19:02;;;;;;;1.50;1.40;;;;;;;12.16;100.00;98206.97;5114808;28;20275;-79
2023/04/15 08:21:29;;;;;;;1.03;1.03;;;;;;;12.11;100.00;98199.72;5114423;28;20278;-78
2023/04/15 08:23:56;;;;;;;0.83;0.80;;;;;;;12.13;100.00;98202.94;5114836;28;20758;-79
2023/04/15 08:26:23;;;;;;;1.13;0.90;;;;;;;12.14;100.00;98204.56;5114796;28;20655;-79
2023/04/15 08:28:50;;;;;;;0.70;0.70;;;;;;;12.19;100.00;98201.06;5114652;28;20209;-79
2023/04/15 08:31:18;;;;;;;0.80;0.70;;;;;;;12.24;100.00;98206.47;5114350;28;20238;-79
2023/04/15 08:33:45;;;;;;;0.70;0.70;;;;;;;12.37;100.00;98203.25;5114092;28;20247;-78
2023/04/15 08:36:12;;;;;;;0.50;0.50;;;;;;;12.53;100.00;98207.59;5114961;28;20187;-79
2023/04/15 08:38:39;;;;;;;0.60;0.60;;;;;;;12.65;100.00;98212.72;5114224;28;20240;-79
2023/04/15 08:41:26;;;;;;;1.10;1.00;;;;;;;12.92;100.00;98215.19;5114484;28;20215;-78
2023/04/15 08:43:57;;;;;;;1.23;0.70;;;;;;;13.06;100.00;98218.94;5102700;28;20195;-78
2023/04/15 08:46:24;;;;;;;0.70;0.70;;;;;;;13.14;100.00;98216.53;5114200;28;20192;-78
2023/04/15 08:48:54;;;;;;;0.70;0.70;;;;;;;13.09;100.00;98219.19;5102637;28;20232;-79
2023/04/15 08:51:21;;;;;;;1.03;0.90;;;;;;;13.20;100.00;98225.41;5096218;28;20712;-79
2023/04/15 08:53:51;;;;;;;0.70;0.70;;;;;;;13.50;100.00;98227.25;5102990;28;20189;-79
2023/04/15 08:56:19;;;;;;;0.73;0.60;;;;;;;13.71;100.00;98228.81;5114068;28;20268;-79
2023/04/15 08:58:45;;;;;;;0.50;0.50;;;;;;;13.93;100.00;98231.16;5101576;28;20671;-79
2023/04/15 09:01:12;;;;;;;0.50;0.50;;;;;;;14.01;100.00;98234.09;5114113;28;20218;-79
2023/04/15 09:03:39;;;;;;;0.40;0.40;;;;;;;14.05;100.00;98223.56;5113900;28;20660;-79
2023/04/15 09:06:06;;;;;;;0.37;0.37;;;;;;;14.10;100.00;98231.63;5113983;28;20206;-79
2023/04/15 09:08:34;;;;;;;0.50;0.50;;;;;;;14.20;100.00;98231.59;5113702;28;20293;-78
2023/04/15 09:11:02;;;;;;;0.60;0.60;;;;;;;14.14;100.00;98226.53;5104990;28;20200;-78
2023/04/15 09:13:29;;;;;;;0.63;0.63;;;;;;;14.16;100.00;98235.13;5114016;28;20231;-78
2023/04/15 09:15:57;;;;;;;0.50;0.50;;;;;;;14.15;100.00;98228.91;5113474;28;20197;-79
2023/04/15 09:18:31;;;;;;;0.90;0.50;;;;;;;14.10;100.00;98240.50;5113398;28;20251;-78
2023/04/15 09:21:12;;;;;;;0.80;0.40;;;;;;;14.16;100.00;98249.38;5113415;28;20213;-78
2023/04/15 09:23:41;;;;;;;0.50;0.40;;;;;;;14.17;100.00;98244.81;5092706;28;20275;-78
2023/04/15 09:26:07;;;;;;;0.50;0.50;;;;;;;14.06;100.00;98250.22;5099142;28;20189;-79
2023/04/15 09:28:40;;;;;;;0.50;0.50;;;;;;;14.03;100.00;98253.50;5097364;28;20676;-79
2023/04/15 09:31:07;;;;;;;1.07;1.00;;;;;;;14.04;100.00;98251.59;5099504;28;20186;-78
2023/04/15 09:33:33;;;;;;;1.30;1.20;;;;;;;14.04;100.00;98252.38;5112986;28;20268;-78
2023/04/15 09:36:04;;;;;;;0.70;0.70;;;;;;;14.05;100.00;98262.06;5112974;28;20221;-78
2023/04/15 09:38:31;;;;;;;0.50;0.50;;;;;;;14.10;100.00;98256.69;5097965;28;20207;-79
2023/04/15 09:40:58;;;;;;;1.00;0.90;;;;;;;13.99;100.00;98248.94;5095067;28;20190;-79
2023/04/15 09:43:38;;;;;;;0.63;0.63;;;;;;;14.02;100.00;98253.75;5113250;28;20277;-77
2023/04/15 09:46:05;;;;;;;0.50;0.40;;;;;;;13.90;100.00;98262.16;5111664;28;20289;-79
2023/04/15 09:48:31;;;;;;;0.50;0.50;;;;;;;13.99;100.00;98265.09;5105955;28;20209;-76
2023/04/15 09:51:00;;;;;;;0.60;0.57;;;;;;;13.93;100.00;98272.38;5112439;28;20645;-77
2023/04/15 09:53:27;;;;;;;1.37;0.90;;;;;;;13.96;100.00;98265.59;5112660;28;20698;-78
2023/04/15 09:56:00;;;;;;;0.50;0.47;;;;;;;14.16;100.00;98265.56;5098271;28;20784;-78
2023/04/15 09:58:29;;;;;;;0.50;0.50;;;;;;;14.35;100.00;98263.03;5099441;28;20671;-77
2023/04/15 10:00:56;;;;;;;0.40;0.40;;;;;;;14.57;100.00;98273.47;5109915;28;20211;-79
2023/04/15 10:03:26;;;;;;;0.50;0.50;;;;;;;14.68;100.00;98270.44;5094855;28;20191;-77
2023/04/15 10:05:55;;;;;;;0.50;0.50;;;;;;;14.91;100.00;98275.16;5101172;28;20212;-76
2023/04/15 10:08:24;;;;;;;0.60;0.60;;;;;;;15.04;100.00;98268.31;5112388;28;20199;-78
2023/04/15 10:10:51;;;;;;;0.67;0.60;;;;;;;15.22;100.00;98270.31;5112826;28;20685;-78
2023/04/15 10:13:24;;;;;;;0.50;0.50;;;;;;;15.26;100.00;98274.06;5112614;28;20187;-77
2023/04/15 10:16:13;;;;;;;0.60;0.60;;;;;;;15.47;100.00;98273.91;5112878;28;20184;-78
2023/04/15 10:18:43;;;;;;;0.50;0.50;;;;;;;15.55;100.00;98274.13;5088904;28;20274;-77
2023/04/15 10:21:10;;;;;;;0.60;0.50;;;;;;;15.63;100.00;98275.41;5101509;28;20558;-78
2023/04/15 10:23:37;;;;;;;0.67;0.40;;;;;;;15.66;100.00;98277.53;5112661;28;20188;-77
2023/04/15 10:26:04;;;;;;;0.60;0.60;;;;;;;15.68;99.51;98281.53;5101238;28;20605;-79
2023/04/15 10:28:31;;;;;;;0.70;0.70;;;;;;;15.73;97.44;98276.09;5102679;28;20242;-78
2023/04/15 10:30:58;;;;;;;1.03;0.70;;;;;;;15.68;96.89;98280.72;5112396;28;20295;-77
2023/04/15 10:33:26;;;;;;;0.67;0.67;;;;;;;15.61;100.00;98281.09;5102759;28;20203;-78
2023/04/15 10:35:54;;;;;;;0.87;0.60;;;;;;;15.72;100.00;98287.19;5112783;28;20203;-77
2023/04/15 10:38:37;;;;;;;1.13;0.67;;;;;;;15.90;100.00;98288.38;5099211;28;20196;-78
2023/04/15 10:41:19;;;;;;;0.50;0.50;;;;;;;16.25;96.14;98285.25;5079232;28;20192;-78
2023/04/15 10:43:52;;;;;;;0.60;0.40;;;;;;;16.46;90.86;98286.63;5116346;28;20196;-78
2023/04/15 10:46:26;;;;;;;0.40;0.40;;;;;;;16.23;90.29;98279.34;5099378;28;20282;-79
2023/04/15 10:48:53;;;;;;;0.90;0.90;;;;;;;16.37;92.36;98285.66;5101106;28;20211;-78
2023/04/15 10:51:26;;;;;;;0.60;0.60;;;;;;;16.50;90.62;98287.66;5116358;28;20262;-78
2023/04/15 10:54:00;;;;;;;0.53;0.53;;;;;;;16.65;89.93;98282.09;5110655;28;20290;-78
2023/04/15 10:56:28;;;;;;;0.40;0.40;;;;;;;16.79;87.68;98289.47;5108339;28;20265;-79
2023/04/15 10:58:58;;;;;;;0.50;0.40;;;;;;;16.87;87.83;98280.69;5095724;28;20291;-78
2023/04/15 11:01:51;;;;;;;0.47;0.40;;;;;;;17.16;88.03;98284.03;5116143;28;20206;-77
2023/04/15 11:04:59;;;;;;;0.40;0.40;;;;;;;17.54;84.34;98288.25;5112937;28;20192;-79
2023/04/15 11:07:43;;;;;;;0.50;0.50;;;;;;;17.68;84.85;98292.97;5116846;28;20622;-78
2023/04/15 11:10:12;;;;;;;0.20;0.20;;;;;;;18.03;80.09;98281.47;5117178;28;20534;-78
2023/04/15 11:12:40;;;;;;;0.80;0.60;;;;;;;17.81;77.85;98292.97;5116962;28;20184;-77
2023/04/15 11:15:27;;;;;;;0.60;0.60;;;;;;;17.58;80.13;98294.75;5098608;28;20270;-78
2023/04/15 11:17:55;;;;;;;1.70;1.03;;;;;;;17.15;80.52;98296.75;5116652;28;20184;-77
2023/04/15 11:20:22;;;;;;;1.07;1.00;;;;;;;16.82;80.50;98291.56;5116611;28;20307;-77
2023/04/15 11:22:50;;;;;;;0.60;0.60;;;;;;;16.52;83.80;98298.97;5098481;28;20634;-78
2023/04/15 11:25:24;;;;;;;0.30;0.30;;;;;;;16.32;82.00;98299.25;5116435;28;20210;-77
2023/04/15 11:27:53;;;;;;;0.40;0.30;;;;;;;16.03;85.60;98296.59;5098849;28;20174;-77
2023/04/15 11:30:22;;;;;;;0.30;0.30;;;;;;;15.88;90.35;98304.03;5098276;28;20186;-77
2023/04/15 11:32:49;;;;;;;0.70;0.70;;;;;;;15.90;87.74;98305.38;5116179;28;20183;-77
2023/04/15 11:35:17;;;;;;;0.83;0.60;;;;;;;15.91;87.85;98309.66;5098067;28;20199;-77